ARG1545 SABE-SACO
Flight info
| Callsign | ARG1545 |
|---|---|
| Flight time | N/A |
| Altitude | 32000 |
| Route | ATOVO4B ATOVO UW5 ASISA ASISA1Q |
| Aircraft | B38M/M-SDE1FGHILORVWXY/HB1 |
Departure
| Time | N/A |
|---|---|
| Airport | Aeroparque Jorge Newbery (SABE) |
Arrival
| Time | 2026-05-03 21:05 |
|---|---|
| Airport | Ingeniero Aeronáutico Ambrosio L.V. Taravella International Airport (SACO) |
| Time | Latitude | Longitude | Altitude | Speed | Heading |
|---|---|---|---|---|---|
| 2026-05-03 20:15 | -33.43365 | -59.93316 | 32090 ft | 435 kts | 300° |
| 2026-05-03 20:15 | -33.39771 | -59.99144 | 32093 ft | 435 kts | 300° |
| 2026-05-03 20:16 | -33.36195 | -60.04935 | 32090 ft | 435 kts | 300° |
| 2026-05-03 20:16 | -33.32593 | -60.10759 | 32086 ft | 435 kts | 300° |
| 2026-05-03 20:17 | -33.28992 | -60.16572 | 32084 ft | 435 kts | 300° |
| 2026-05-03 20:17 | -33.25389 | -60.22379 | 32084 ft | 435 kts | 300° |
| 2026-05-03 20:18 | -33.21779 | -60.28188 | 32080 ft | 435 kts | 300° |
| 2026-05-03 20:18 | -33.18170 | -60.33986 | 32080 ft | 435 kts | 300° |
| 2026-05-03 20:19 | -33.14587 | -60.39734 | 32079 ft | 435 kts | 300° |
| 2026-05-03 20:19 | -33.10970 | -60.45527 | 32075 ft | 435 kts | 300° |
| 2026-05-03 20:20 | -33.07353 | -60.51312 | 32057 ft | 435 kts | 300° |
| 2026-05-03 20:20 | -33.03727 | -60.57100 | 32053 ft | 435 kts | 300° |
| 2026-05-03 20:21 | -33.00102 | -60.62881 | 32059 ft | 435 kts | 300° |
| 2026-05-03 20:21 | -32.96497 | -60.68618 | 32052 ft | 435 kts | 300° |
| 2026-05-03 20:22 | -32.92873 | -60.74377 | 32042 ft | 435 kts | 300° |
| 2026-05-03 20:22 | -32.89467 | -60.80288 | 32046 ft | 429 kts | 294° |
| 2026-05-03 20:23 | -32.86430 | -60.86402 | 32051 ft | 429 kts | 294° |
| 2026-05-03 20:23 | -32.83396 | -60.92540 | 32041 ft | 429 kts | 294° |
| 2026-05-03 20:24 | -32.80371 | -60.98652 | 32047 ft | 429 kts | 294° |
| 2026-05-03 20:24 | -32.77338 | -61.04772 | 32056 ft | 429 kts | 294° |
| 2026-05-03 20:25 | -32.74323 | -61.10844 | 32056 ft | 429 kts | 294° |
| 2026-05-03 20:25 | -32.71286 | -61.16951 | 32060 ft | 429 kts | 294° |
| 2026-05-03 20:26 | -32.68259 | -61.23026 | 32057 ft | 429 kts | 294° |
| 2026-05-03 20:26 | -32.65214 | -61.29129 | 32057 ft | 429 kts | 294° |
| 2026-05-03 20:27 | -32.62167 | -61.35225 | 32052 ft | 429 kts | 294° |
| 2026-05-03 20:27 | -32.59135 | -61.41280 | 32053 ft | 429 kts | 294° |
| 2026-05-03 20:28 | -32.56084 | -61.47364 | 32055 ft | 429 kts | 294° |
| 2026-05-03 20:28 | -32.53036 | -61.53434 | 32049 ft | 428 kts | 294° |
| 2026-05-03 20:29 | -32.49983 | -61.59501 | 32048 ft | 429 kts | 294° |
| 2026-05-03 20:29 | -32.46923 | -61.65573 | 32049 ft | 428 kts | 294° |
| 2026-05-03 20:30 | -32.43885 | -61.71592 | 32045 ft | 428 kts | 294° |
| 2026-05-03 20:30 | -32.40820 | -61.77655 | 32042 ft | 428 kts | 294° |
| 2026-05-03 20:31 | -32.37754 | -61.83711 | 32039 ft | 428 kts | 294° |
| 2026-05-03 20:31 | -32.34690 | -61.89754 | 32040 ft | 428 kts | 294° |
| 2026-05-03 20:32 | -32.31625 | -61.95790 | 32038 ft | 428 kts | 294° |
| 2026-05-03 20:32 | -32.28555 | -62.01829 | 32032 ft | 428 kts | 295° |
| 2026-05-03 20:33 | -32.26001 | -62.06847 | 32036 ft | 428 kts | 295° |
| 2026-05-03 20:33 | -32.22412 | -62.13885 | 32030 ft | 428 kts | 295° |
| 2026-05-03 20:34 | -32.19353 | -62.19872 | 32030 ft | 428 kts | 295° |
| 2026-05-03 20:34 | -32.16276 | -62.25887 | 31863 ft | 430 kts | 295° |
| 2026-05-03 20:34 | -32.14732 | -62.28899 | 31165 ft | 428 kts | 295° |
| 2026-05-03 20:35 | -32.13189 | -62.31908 | 30482 ft | 428 kts | 295° |
| 2026-05-03 20:35 | -32.11653 | -62.34902 | 29927 ft | 423 kts | 295° |
| 2026-05-03 20:35 | -32.10138 | -62.37853 | 29400 ft | 418 kts | 295° |
| 2026-05-03 20:35 | -32.08642 | -62.40764 | 28839 ft | 413 kts | 295° |
| 2026-05-03 20:36 | -32.07158 | -62.43650 | 28289 ft | 408 kts | 295° |
| 2026-05-03 20:36 | -32.05688 | -62.46506 | 27749 ft | 404 kts | 295° |
| 2026-05-03 20:36 | -32.04235 | -62.49328 | 27230 ft | 400 kts | 295° |
| 2026-05-03 20:36 | -32.02817 | -62.52079 | 26721 ft | 398 kts | 296° |
| 2026-05-03 20:37 | -32.01381 | -62.54862 | 26226 ft | 396 kts | 296° |
| 2026-05-03 20:37 | -31.99952 | -62.57631 | 25715 ft | 394 kts | 296° |
| 2026-05-03 20:37 | -31.98533 | -62.60378 | 25231 ft | 391 kts | 296° |
| 2026-05-03 20:37 | -31.97124 | -62.63104 | 24744 ft | 389 kts | 296° |
| 2026-05-03 20:38 | -31.95722 | -62.65815 | 24274 ft | 386 kts | 296° |
| 2026-05-03 20:38 | -31.94328 | -62.68507 | 23808 ft | 384 kts | 296° |
| 2026-05-03 20:38 | -31.92941 | -62.71184 | 23298 ft | 381 kts | 296° |
| 2026-05-03 20:38 | -31.91563 | -62.73841 | 22755 ft | 379 kts | 296° |
| 2026-05-03 20:39 | -31.90194 | -62.76480 | 22224 ft | 376 kts | 296° |
| 2026-05-03 20:39 | -31.89291 | -62.78220 | 21884 ft | 375 kts | 297° |
| 2026-05-03 20:39 | -31.87937 | -62.80827 | 21358 ft | 372 kts | 297° |
| 2026-05-03 20:39 | -31.86593 | -62.83413 | 20851 ft | 370 kts | 297° |
| 2026-05-03 20:40 | -31.85256 | -62.85984 | 20348 ft | 367 kts | 297° |
| 2026-05-03 20:40 | -31.83927 | -62.88538 | 19854 ft | 365 kts | 297° |
| 2026-05-03 20:40 | -31.82604 | -62.91079 | 19373 ft | 363 kts | 297° |
| 2026-05-03 20:40 | -31.81287 | -62.93606 | 18892 ft | 362 kts | 298° |
| 2026-05-03 20:41 | -31.79975 | -62.96122 | 18442 ft | 361 kts | 298° |
| 2026-05-03 20:41 | -31.78666 | -62.98631 | 17945 ft | 359 kts | 298° |
| 2026-05-03 20:41 | -31.77359 | -63.01133 | 17437 ft | 358 kts | 298° |
| 2026-05-03 20:41 | -31.76076 | -63.03588 | 16951 ft | 356 kts | 298° |
| 2026-05-03 20:42 | -31.74778 | -63.06070 | 16474 ft | 355 kts | 299° |
| 2026-05-03 20:42 | -31.73488 | -63.08536 | 16009 ft | 354 kts | 299° |
| 2026-05-03 20:42 | -31.72199 | -63.10999 | 15543 ft | 352 kts | 299° |
| 2026-05-03 20:42 | -31.70918 | -63.13447 | 15082 ft | 351 kts | 299° |
| 2026-05-03 20:43 | -31.69643 | -63.15880 | 14638 ft | 348 kts | 299° |
| 2026-05-03 20:43 | -31.68380 | -63.18289 | 14198 ft | 345 kts | 300° |
| 2026-05-03 20:43 | -31.67126 | -63.20675 | 13759 ft | 342 kts | 299° |
| 2026-05-03 20:43 | -31.65980 | -63.23111 | 13268 ft | 338 kts | 296° |
| 2026-05-03 20:44 | -31.64875 | -63.25537 | 12787 ft | 335 kts | 297° |
| 2026-05-03 20:44 | -31.63791 | -63.27895 | 12337 ft | 321 kts | 297° |
| 2026-05-03 20:44 | -31.62752 | -63.30148 | 11920 ft | 307 kts | 297° |
| 2026-05-03 20:44 | -31.61753 | -63.32306 | 11527 ft | 295 kts | 297° |
| 2026-05-03 20:45 | -31.60796 | -63.34380 | 11133 ft | 284 kts | 297° |
| 2026-05-03 20:45 | -31.59854 | -63.36412 | 10744 ft | 283 kts | 297° |
| 2026-05-03 20:45 | -31.58912 | -63.38435 | 10371 ft | 282 kts | 298° |
| 2026-05-03 20:45 | -31.57970 | -63.40451 | 10008 ft | 281 kts | 300° |
| 2026-05-03 20:46 | -31.56630 | -63.42007 | 9995 ft | 267 kts | 333° |
| 2026-05-03 20:46 | -31.54860 | -63.42487 | 10092 ft | 270 kts | 353° |
| 2026-05-03 20:46 | -31.52979 | -63.42628 | 10034 ft | 270 kts | 353° |
| 2026-05-03 20:46 | -31.51097 | -63.42802 | 10037 ft | 271 kts | 352° |
| 2026-05-03 20:47 | -31.49220 | -63.42989 | 10024 ft | 271 kts | 352° |
| 2026-05-03 20:47 | -31.47337 | -63.43171 | 10025 ft | 272 kts | 352° |
| 2026-05-03 20:47 | -31.45446 | -63.43356 | 9992 ft | 272 kts | 353° |
| 2026-05-03 20:47 | -31.43557 | -63.43542 | 9775 ft | 272 kts | 353° |
| 2026-05-03 20:48 | -31.41680 | -63.43724 | 9509 ft | 270 kts | 353° |
| 2026-05-03 20:48 | -31.39818 | -63.43893 | 9265 ft | 266 kts | 353° |
| 2026-05-03 20:48 | -31.37983 | -63.44071 | 9044 ft | 261 kts | 352° |
| 2026-05-03 20:48 | -31.36186 | -63.44252 | 8810 ft | 258 kts | 353° |
| 2026-05-03 20:49 | -31.34406 | -63.44439 | 8573 ft | 255 kts | 352° |
| 2026-05-03 20:49 | -31.32651 | -63.44652 | 8350 ft | 252 kts | 352° |
| 2026-05-03 20:49 | -31.30931 | -63.44863 | 8112 ft | 251 kts | 352° |
| 2026-05-03 20:49 | -31.29205 | -63.45076 | 7909 ft | 248 kts | 352° |
| 2026-05-03 20:50 | -31.27507 | -63.45353 | 7675 ft | 245 kts | 342° |
| 2026-05-03 20:50 | -31.26128 | -63.46458 | 7394 ft | 243 kts | 308° |
| 2026-05-03 20:50 | -31.25589 | -63.48320 | 7125 ft | 247 kts | 277° |
| 2026-05-03 20:50 | -31.25616 | -63.50334 | 7041 ft | 250 kts | 272° |
| 2026-05-03 20:51 | -31.25686 | -63.52380 | 7025 ft | 252 kts | 272° |
| 2026-05-03 20:51 | -31.25754 | -63.54424 | 7022 ft | 252 kts | 272° |
| 2026-05-03 20:51 | -31.25830 | -63.56480 | 7017 ft | 253 kts | 270° |
| 2026-05-03 20:51 | -31.26309 | -63.58476 | 7028 ft | 260 kts | 248° |
| 2026-05-03 20:52 | -31.27308 | -63.60271 | 6856 ft | 267 kts | 235° |
| 2026-05-03 20:52 | -31.28548 | -63.61902 | 6607 ft | 268 kts | 232° |
| 2026-05-03 20:52 | -31.29812 | -63.63503 | 6362 ft | 268 kts | 232° |
| 2026-05-03 20:52 | -31.31081 | -63.65099 | 6094 ft | 268 kts | 232° |
| 2026-05-03 20:53 | -31.32333 | -63.66671 | 6017 ft | 266 kts | 232° |
| 2026-05-03 20:53 | -31.33573 | -63.68221 | 6007 ft | 251 kts | 232° |
| 2026-05-03 20:53 | -31.34726 | -63.69642 | 6057 ft | 234 kts | 232° |
| 2026-05-03 20:53 | -31.35848 | -63.71016 | 6031 ft | 233 kts | 232° |
| 2026-05-03 20:54 | -31.36969 | -63.72391 | 6015 ft | 233 kts | 232° |
| 2026-05-03 20:54 | -31.39144 | -63.75053 | 6009 ft | 212 kts | 232° |
| 2026-05-03 20:54 | -31.40165 | -63.76281 | 6020 ft | 210 kts | 233° |
| 2026-05-03 20:55 | -31.41190 | -63.77512 | 6011 ft | 211 kts | 232° |
| 2026-05-03 20:55 | -31.42155 | -63.78791 | 6010 ft | 208 kts | 238° |
| 2026-05-03 20:55 | -31.43042 | -63.80117 | 6005 ft | 207 kts | 239° |
| 2026-05-03 20:55 | -31.43915 | -63.81453 | 6010 ft | 207 kts | 240° |
| 2026-05-03 20:56 | -31.44729 | -63.82829 | 5982 ft | 201 kts | 255° |
| 2026-05-03 20:56 | -31.44795 | -63.84325 | 5975 ft | 178 kts | 290° |
| 2026-05-03 20:56 | -31.44547 | -63.85788 | 6058 ft | 188 kts | 283° |
| 2026-05-03 20:56 | -31.44412 | -63.87293 | 6013 ft | 188 kts | 282° |
| 2026-05-03 20:57 | -31.44301 | -63.88807 | 5998 ft | 184 kts | 281° |
| 2026-05-03 20:57 | -31.44208 | -63.90283 | 6041 ft | 180 kts | 281° |
| 2026-05-03 20:57 | -31.44124 | -63.91745 | 6013 ft | 178 kts | 281° |
| 2026-05-03 20:57 | -31.44046 | -63.93190 | 6001 ft | 177 kts | 280° |
| 2026-05-03 20:58 | -31.43972 | -63.94635 | 5993 ft | 178 kts | 280° |
| 2026-05-03 20:58 | -31.43901 | -63.96085 | 5984 ft | 179 kts | 280° |
| 2026-05-03 20:58 | -31.43832 | -63.97539 | 6007 ft | 179 kts | 280° |
| 2026-05-03 20:58 | -31.43764 | -63.98995 | 6008 ft | 178 kts | 280° |
| 2026-05-03 20:59 | -31.43698 | -64.00444 | 5894 ft | 178 kts | 280° |
| 2026-05-03 20:59 | -31.43633 | -64.01880 | 5635 ft | 175 kts | 280° |
| 2026-05-03 20:59 | -31.43569 | -64.03273 | 5387 ft | 172 kts | 280° |
| 2026-05-03 20:59 | -31.43510 | -64.04650 | 5126 ft | 167 kts | 278° |
| 2026-05-03 21:00 | -31.43507 | -64.05996 | 4853 ft | 163 kts | 278° |
| 2026-05-03 21:00 | -31.43508 | -64.06889 | 4653 ft | 161 kts | 278° |
| 2026-05-03 21:00 | -31.43497 | -64.08588 | 4467 ft | 157 kts | 279° |
| 2026-05-03 21:00 | -31.43498 | -64.09882 | 4531 ft | 160 kts | 278° |
| 2026-05-03 21:01 | -31.43497 | -64.11187 | 4510 ft | 161 kts | 278° |
| 2026-05-03 21:01 | -31.43496 | -64.12492 | 4507 ft | 160 kts | 278° |
| 2026-05-03 21:01 | -31.43493 | -64.13794 | 4429 ft | 160 kts | 278° |
| 2026-05-03 21:01 | -31.43487 | -64.15103 | 4290 ft | 160 kts | 278° |
| 2026-05-03 21:02 | -31.43156 | -64.16264 | 3958 ft | 146 kts | 318° |
| 2026-05-03 21:02 | -31.42360 | -64.16950 | 3672 ft | 143 kts | 330° |
| 2026-05-03 21:02 | -31.41528 | -64.17607 | 3395 ft | 144 kts | 331° |
| 2026-05-03 21:02 | -31.40684 | -64.18257 | 3087 ft | 146 kts | 330° |
| 2026-05-03 21:03 | -31.39848 | -64.18931 | 2726 ft | 147 kts | 333° |
| 2026-05-03 21:03 | -31.39003 | -64.19553 | 2443 ft | 137 kts | 336° |
| 2026-05-03 21:03 | -31.38199 | -64.20101 | 2518 ft | 136 kts | 335° |
| 2026-05-03 21:03 | -31.37366 | -64.20589 | 2501 ft | 131 kts | 353° |
| 2026-05-03 21:04 | -31.36476 | -64.20711 | 2480 ft | 129 kts | 0° |
| 2026-05-03 21:04 | -31.35574 | -64.20780 | 2335 ft | 129 kts | 4° |
| 2026-05-03 21:04 | -31.34677 | -64.20807 | 2144 ft | 129 kts | 8° |
| 2026-05-03 21:04 | -31.33777 | -64.20777 | 1982 ft | 130 kts | 358° |
| 2026-05-03 21:05 | -31.32865 | -64.20798 | 1740 ft | 133 kts | 0° |
| 2026-05-03 21:05 | -31.31955 | -64.20827 | 1608 ft | 123 kts | 5° |
| 2026-05-03 21:05 | -31.31420 | -64.20831 | 1598 ft | 21 kts | 353° |
| 2026-05-03 21:05 | -31.31379 | -64.20817 | 1598 ft | 11 kts | 30° |
| 2026-05-03 21:06 | -31.31357 | -64.20824 | 1598 ft | 0 kts | 259° |
| 2026-05-03 21:06 | -31.31359 | -64.20826 | 1598 ft | 2 kts | 226° |
| 2026-05-03 21:06 | -31.31408 | -64.20849 | 1602 ft | 12 kts | 199° |
| 2026-05-03 21:06 | -31.31460 | -64.20900 | 1605 ft | 9 kts | 248° |
| 2026-05-03 21:07 | -31.31467 | -64.20925 | 1598 ft | 3 kts | 253° |
| 2026-05-03 21:07 | -31.31471 | -64.20969 | 1597 ft | 8 kts | 277° |
| 2026-05-03 21:07 | -31.31466 | -64.21023 | 1595 ft | 5 kts | 277° |
| 2026-05-03 21:07 | -31.31462 | -64.21046 | 1594 ft | 1 kts | 283° |
| 2026-05-03 21:08 | -31.31465 | -64.21053 | 1594 ft | 2 kts | 240° |
| 2026-05-03 21:08 | -31.31615 | -64.21069 | 1592 ft | 4 kts | 182° |
| 2026-05-03 21:09 | -31.31651 | -64.21067 | 1591 ft | 7 kts | 184° |
| 2026-05-03 21:09 | -31.31668 | -64.21101 | 1590 ft | 6 kts | 287° |
| 2026-05-03 21:09 | -31.31650 | -64.21155 | 1588 ft | 0 kts | 292° |
| 2026-05-03 21:13 | -31.31650 | -64.21154 | 1588 ft | 0 kts | 292° |